sensor_id;sensor_type;location;lat;lon;timestamp;temperature;humidity
39325;DHT22;25037;49.488;9.900;2023-02-28T00:00:36;1.00;59.40
39325;DHT22;25037;49.488;9.900;2023-02-28T00:03:03;1.00;59.50
39325;DHT22;25037;49.488;9.900;2023-02-28T00:05:30;0.90;59.50
39325;DHT22;25037;49.488;9.900;2023-02-28T00:07:57;0.90;59.60
39325;DHT22;25037;49.488;9.900;2023-02-28T00:10:26;0.90;59.60
39325;DHT22;25037;49.488;9.900;2023-02-28T00:12:54;0.80;59.70
39325;DHT22;25037;49.488;9.900;2023-02-28T00:15:24;0.80;59.70
39325;DHT22;25037;49.488;9.900;2023-02-28T00:17:51;0.80;59.70
39325;DHT22;25037;49.488;9.900;2023-02-28T00:20:18;0.70;59.80
39325;DHT22;25037;49.488;9.900;2023-02-28T00:22:47;0.70;59.90
39325;DHT22;25037;49.488;9.900;2023-02-28T00:25:21;0.60;60.00
39325;DHT22;25037;49.488;9.900;2023-02-28T00:27:49;0.60;60.20
39325;DHT22;25037;49.488;9.900;2023-02-28T00:30:21;0.50;60.20
39325;DHT22;25037;49.488;9.900;2023-02-28T00:32:48;0.50;60.50
39325;DHT22;25037;49.488;9.900;2023-02-28T00:35:15;0.50;60.40
39325;DHT22;25037;49.488;9.900;2023-02-28T00:37:42;0.50;60.50
39325;DHT22;25037;49.488;9.900;2023-02-28T00:40:10;0.40;60.70
39325;DHT22;25037;49.488;9.900;2023-02-28T00:42:38;0.40;60.70
39325;DHT22;25037;49.488;9.900;2023-02-28T00:45:05;0.30;60.70
39325;DHT22;25037;49.488;9.900;2023-02-28T00:47:32;0.40;60.70
39325;DHT22;25037;49.488;9.900;2023-02-28T00:49:59;0.30;60.70
39325;DHT22;25037;49.488;9.900;2023-02-28T00:52:26;0.30;60.80
39325;DHT22;25037;49.488;9.900;2023-02-28T00:54:53;0.30;60.90
39325;DHT22;25037;49.488;9.900;2023-02-28T00:57:20;0.30;60.90
39325;DHT22;25037;49.488;9.900;2023-02-28T00:59:47;0.20;61.00
39325;DHT22;25037;49.488;9.900;2023-02-28T01:02:14;0.20;61.10
39325;DHT22;25037;49.488;9.900;2023-02-28T01:04:40;0.20;61.20
39325;DHT22;25037;49.488;9.900;2023-02-28T01:07:07;0.20;61.30
39325;DHT22;25037;49.488;9.900;2023-02-28T01:09:34;0.20;61.30
39325;DHT22;25037;49.488;9.900;2023-02-28T01:12:00;0.10;61.50
39325;DHT22;25037;49.488;9.900;2023-02-28T01:14:27;0.10;61.50
39325;DHT22;25037;49.488;9.900;2023-02-28T01:16:54;0.10;61.60
39325;DHT22;25037;49.488;9.900;2023-02-28T01:19:20;0.00;61.60
39325;DHT22;25037;49.488;9.900;2023-02-28T01:21:47;0.00;61.70
39325;DHT22;25037;49.488;9.900;2023-02-28T01:24:14;0.00;61.70
39325;DHT22;25037;49.488;9.900;2023-02-28T01:26:40;0.00;61.80
39325;DHT22;25037;49.488;9.900;2023-02-28T01:29:07;0.00;61.70
39325;DHT22;25037;49.488;9.900;2023-02-28T01:31:34;0.00;61.70
39325;DHT22;25037;49.488;9.900;2023-02-28T01:34:01;0.00;61.80
39325;DHT22;25037;49.488;9.900;2023-02-28T01:36:28;0.00;61.80
39325;DHT22;25037;49.488;9.900;2023-02-28T01:38:55;0.00;61.80
39325;DHT22;25037;49.488;9.900;2023-02-28T01:41:25;0.00;61.80
39325;DHT22;25037;49.488;9.900;2023-02-28T01:44:00;0.00;61.90
39325;DHT22;25037;49.488;9.900;2023-02-28T01:46:34;0.00;62.00
39325;DHT22;25037;49.488;9.900;2023-02-28T01:49:07;0.00;62.10
39325;DHT22;25037;49.488;9.900;2023-02-28T01:54:11;-3276.70;62.10
39325;DHT22;25037;49.488;9.900;2023-02-28T01:56:45;-3276.70;62.10
39325;DHT22;25037;49.488;9.900;2023-02-28T01:59:16;-3276.70;62.10
39325;DHT22;25037;49.488;9.900;2023-02-28T02:01:45;-3276.60;62.10
39325;DHT22;25037;49.488;9.900;2023-02-28T02:04:12;-3276.60;62.20
39325;DHT22;25037;49.488;9.900;2023-02-28T02:06:44;-3276.60;62.30
39325;DHT22;25037;49.488;9.900;2023-02-28T02:09:12;-3276.50;62.40
39325;DHT22;25037;49.488;9.900;2023-02-28T02:11:43;-3276.50;62.40
39325;DHT22;25037;49.488;9.900;2023-02-28T02:17:05;-3276.40;62.60
39325;DHT22;25037;49.488;9.900;2023-02-28T02:22:21;-3276.40;62.50
39325;DHT22;25037;49.488;9.900;2023-02-28T02:47:45;-3276.30;62.70
39325;DHT22;25037;49.488;9.900;2023-02-28T02:53:13;-3276.20;62.80
39325;DHT22;25037;49.488;9.900;2023-02-28T02:55:43;-3276.20;62.90
39325;DHT22;25037;49.488;9.900;2023-02-28T02:58:14;-3276.20;63.00
39325;DHT22;25037;49.488;9.900;2023-02-28T03:00:48;-3276.20;63.00
39325;DHT22;25037;49.488;9.900;2023-02-28T03:03:18;-3276.20;63.10
39325;DHT22;25037;49.488;9.900;2023-02-28T03:05:49;-3276.20;63.00
39325;DHT22;25037;49.488;9.900;2023-02-28T03:08:16;-3276.20;63.10
39325;DHT22;25037;49.488;9.900;2023-02-28T03:10:46;-3276.20;63.10
39325;DHT22;25037;49.488;9.900;2023-02-28T03:19:24;-3276.10;63.20
39325;DHT22;25037;49.488;9.900;2023-02-28T03:21:57;-3276.10;63.30
39325;DHT22;25037;49.488;9.900;2023-02-28T03:24:45;-3276.10;63.40
39325;DHT22;25037;49.488;9.900;2023-02-28T03:27:28;-3276.10;63.40
39325;DHT22;25037;49.488;9.900;2023-02-28T03:30:14;-3276.10;63.40
39325;DHT22;25037;49.488;9.900;2023-02-28T03:32:54;-3276.10;63.40
39325;DHT22;25037;49.488;9.900;2023-02-28T03:35:29;-3276.10;63.40
39325;DHT22;25037;49.488;9.900;2023-02-28T03:38:05;-3276.10;63.40
39325;DHT22;25037;49.488;9.900;2023-02-28T03:40:35;-3276.10;63.40
39325;DHT22;25037;49.488;9.900;2023-02-28T03:43:10;-3276.10;63.50
39325;DHT22;25037;49.488;9.900;2023-02-28T03:45:39;-3276.10;63.60
39325;DHT22;25037;49.488;9.900;2023-02-28T03:48:28;-3276.00;63.50
39325;DHT22;25037;49.488;9.900;2023-02-28T03:50:58;-3276.00;63.60
39325;DHT22;25037;49.488;9.900;2023-02-28T03:53:32;-3275.90;63.60
39325;DHT22;25037;49.488;9.900;2023-02-28T03:56:06;-3275.90;63.80
39325;DHT22;25037;49.488;9.900;2023-02-28T03:58:55;-3275.90;63.80
39325;DHT22;25037;49.488;9.900;2023-02-28T04:01:41;-3275.90;63.80
39325;DHT22;25037;49.488;9.900;2023-02-28T04:04:10;-3275.90;63.80
39325;DHT22;25037;49.488;9.900;2023-02-28T04:06:38;-3275.80;63.80
39325;DHT22;25037;49.488;9.900;2023-02-28T04:09:06;-3275.80;63.80
39325;DHT22;25037;49.488;9.900;2023-02-28T04:11:52;-3275.80;63.90
39325;DHT22;25037;49.488;9.900;2023-02-28T04:14:19;-3275.80;64.10
39325;DHT22;25037;49.488;9.900;2023-02-28T04:16:46;-3275.80;64.00
39325;DHT22;25037;49.488;9.900;2023-02-28T04:19:13;-3275.80;64.00
39325;DHT22;25037;49.488;9.900;2023-02-28T04:21:43;-3275.80;64.10
39325;DHT22;25037;49.488;9.900;2023-02-28T04:24:13;-3275.80;64.20
39325;DHT22;25037;49.488;9.900;2023-02-28T04:26:42;-3275.80;64.20
39325;DHT22;25037;49.488;9.900;2023-02-28T04:29:12;-3275.70;64.20
39325;DHT22;25037;49.488;9.900;2023-02-28T04:31:39;-3275.70;64.20
39325;DHT22;25037;49.488;9.900;2023-02-28T04:34:06;-3275.70;64.30
39325;DHT22;25037;49.488;9.900;2023-02-28T04:36:33;-3275.70;64.30
39325;DHT22;25037;49.488;9.900;2023-02-28T04:39:00;-3275.70;64.30
39325;DHT22;25037;49.488;9.900;2023-02-28T04:41:26;-3275.70;64.30
39325;DHT22;25037;49.488;9.900;2023-02-28T04:43:57;-3275.80;64.30
39325;DHT22;25037;49.488;9.900;2023-02-28T04:46:24;-3275.80;64.30
39325;DHT22;25037;49.488;9.900;2023-02-28T04:48:51;-3275.80;64.30
39325;DHT22;25037;49.488;9.900;2023-02-28T04:51:18;-3275.70;64.30
39325;DHT22;25037;49.488;9.900;2023-02-28T04:53:46;-3275.70;64.40
39325;DHT22;25037;49.488;9.900;2023-02-28T04:56:15;-3275.80;64.40
39325;DHT22;25037;49.488;9.900;2023-02-28T04:58:42;-3275.70;64.40
39325;DHT22;25037;49.488;9.900;2023-02-28T05:01:20;-3275.80;64.40
39325;DHT22;25037;49.488;9.900;2023-02-28T05:03:48;-3275.70;64.40
39325;DHT22;25037;49.488;9.900;2023-02-28T05:06:15;-3275.70;64.40
39325;DHT22;25037;49.488;9.900;2023-02-28T05:08:42;-3275.70;64.40
39325;DHT22;25037;49.488;9.900;2023-02-28T05:11:19;-3275.70;64.50
39325;DHT22;25037;49.488;9.900;2023-02-28T05:13:46;-3275.70;64.50
39325;DHT22;25037;49.488;9.900;2023-02-28T05:16:14;-3275.60;64.50
39325;DHT22;25037;49.488;9.900;2023-02-28T05:18:41;-3275.60;64.50
39325;DHT22;25037;49.488;9.900;2023-02-28T05:21:24;-3275.60;64.50
39325;DHT22;25037;49.488;9.900;2023-02-28T05:23:51;-3275.60;64.60
39325;DHT22;25037;49.488;9.900;2023-02-28T05:26:19;-3275.60;64.50
39325;DHT22;25037;49.488;9.900;2023-02-28T05:28:46;-3275.60;64.50
39325;DHT22;25037;49.488;9.900;2023-02-28T05:31:13;-3275.60;64.60
39325;DHT22;25037;49.488;9.900;2023-02-28T05:33:40;-3275.60;64.60
39325;DHT22;25037;49.488;9.900;2023-02-28T05:36:07;-3275.60;64.60
39325;DHT22;25037;49.488;9.900;2023-02-28T05:38:34;-3275.60;64.60
39325;DHT22;25037;49.488;9.900;2023-02-28T05:41:09;-3275.60;64.60
39325;DHT22;25037;49.488;9.900;2023-02-28T05:43:36;-3275.60;64.60
39325;DHT22;25037;49.488;9.900;2023-02-28T05:46:05;-3275.60;64.60
39325;DHT22;25037;49.488;9.900;2023-02-28T05:48:33;-3275.60;64.60
39325;DHT22;25037;49.488;9.900;2023-02-28T05:51:00;-3275.60;64.60
39325;DHT22;25037;49.488;9.900;2023-02-28T05:53:28;-3275.50;64.70
39325;DHT22;25037;49.488;9.900;2023-02-28T05:55:55;-3275.60;64.70
39325;DHT22;25037;49.488;9.900;2023-02-28T05:58:22;-3275.50;64.70
39325;DHT22;25037;49.488;9.900;2023-02-28T06:00:49;-3275.50;64.70
39325;DHT22;25037;49.488;9.900;2023-02-28T06:03:15;-3275.50;64.70
39325;DHT22;25037;49.488;9.900;2023-02-28T06:05:42;-3275.50;64.80
39325;DHT22;25037;49.488;9.900;2023-02-28T06:08:09;-3275.50;64.80
39325;DHT22;25037;49.488;9.900;2023-02-28T06:10:35;-3275.50;64.90
39325;DHT22;25037;49.488;9.900;2023-02-28T06:13:03;-3275.50;64.90
39325;DHT22;25037;49.488;9.900;2023-02-28T06:15:30;-3275.60;64.90
39325;DHT22;25037;49.488;9.900;2023-02-28T06:17:57;-3275.60;64.90
39325;DHT22;25037;49.488;9.900;2023-02-28T06:20:25;-3275.60;64.90
39325;DHT22;25037;49.488;9.900;2023-02-28T06:22:52;-3275.70;64.90
39325;DHT22;25037;49.488;9.900;2023-02-28T06:25:21;-3275.70;64.90
39325;DHT22;25037;49.488;9.900;2023-02-28T06:27:47;-3275.70;64.90
39325;DHT22;25037;49.488;9.900;2023-02-28T06:30:14;-3275.70;64.90
39325;DHT22;25037;49.488;9.900;2023-02-28T06:32:41;-3275.70;64.80
39325;DHT22;25037;49.488;9.900;2023-02-28T06:35:08;-3275.80;64.80
39325;DHT22;25037;49.488;9.900;2023-02-28T06:37:35;-3275.80;64.80
39325;DHT22;25037;49.488;9.900;2023-02-28T06:40:02;-3275.90;64.70
39325;DHT22;25037;49.488;9.900;2023-02-28T06:42:29;-3275.90;64.70
39325;DHT22;25037;49.488;9.900;2023-02-28T06:44:57;-3275.90;64.70
39325;DHT22;25037;49.488;9.900;2023-02-28T06:47:24;-3276.00;64.60
39325;DHT22;25037;49.488;9.900;2023-02-28T06:49:51;-3276.10;64.50
39325;DHT22;25037;49.488;9.900;2023-02-28T06:52:17;-3276.20;64.50
39325;DHT22;25037;49.488;9.900;2023-02-28T06:54:44;-3276.30;64.30
39325;DHT22;25037;49.488;9.900;2023-02-28T06:57:11;-3276.70;63.90
39325;DHT22;25037;49.488;9.900;2023-02-28T06:59:37;0.30;62.90
39325;DHT22;25037;49.488;9.900;2023-02-28T07:02:04;1.00;61.60
39325;DHT22;25037;49.488;9.900;2023-02-28T07:04:33;1.90;59.90
39325;DHT22;25037;49.488;9.900;2023-02-28T07:06:59;3.10;57.80
39325;DHT22;25037;49.488;9.900;2023-02-28T07:09:26;4.20;55.50
39325;DHT22;25037;49.488;9.900;2023-02-28T07:11:56;5.00;53.60
39325;DHT22;25037;49.488;9.900;2023-02-28T07:14:23;5.70;52.30
39325;DHT22;25037;49.488;9.900;2023-02-28T07:16:49;5.90;51.60
39325;DHT22;25037;49.488;9.900;2023-02-28T07:19:16;6.00;51.50
39325;DHT22;25037;49.488;9.900;2023-02-28T07:21:43;5.50;52.20
39325;DHT22;25037;49.488;9.900;2023-02-28T07:24:10;4.80;53.80
39325;DHT22;25037;49.488;9.900;2023-02-28T07:26:36;4.40;55.00
39325;DHT22;25037;49.488;9.900;2023-02-28T07:29:03;4.10;55.90
39325;DHT22;25037;49.488;9.900;2023-02-28T07:31:30;3.80;56.60
39325;DHT22;25037;49.488;9.900;2023-02-28T07:33:57;3.50;57.20
39325;DHT22;25037;49.488;9.900;2023-02-28T07:36:24;3.40;57.60
39325;DHT22;25037;49.488;9.900;2023-02-28T07:38:51;3.40;57.90
39325;DHT22;25037;49.488;9.900;2023-02-28T07:41:20;3.40;58.10
39325;DHT22;25037;49.488;9.900;2023-02-28T07:43:47;3.50;58.20
39325;DHT22;25037;49.488;9.900;2023-02-28T07:46:15;3.60;58.30
39325;DHT22;25037;49.488;9.900;2023-02-28T07:48:43;3.60;58.30
39325;DHT22;25037;49.488;9.900;2023-02-28T07:51:10;3.60;58.30
39325;DHT22;25037;49.488;9.900;2023-02-28T07:53:37;3.70;58.20
39325;DHT22;25037;49.488;9.900;2023-02-28T07:56:04;3.70;58.20
39325;DHT22;25037;49.488;9.900;2023-02-28T07:58:31;3.80;58.30
39325;DHT22;25037;49.488;9.900;2023-02-28T08:01:08;3.80;58.20
39325;DHT22;25037;49.488;9.900;2023-02-28T08:03:35;3.90;58.00
39325;DHT22;25037;49.488;9.900;2023-02-28T08:06:04;4.00;57.90
39325;DHT22;25037;49.488;9.900;2023-02-28T08:08:31;4.20;57.90
39325;DHT22;25037;49.488;9.900;2023-02-28T08:10:59;4.30;57.70
39325;DHT22;25037;49.488;9.900;2023-02-28T08:13:28;4.30;57.50
39325;DHT22;25037;49.488;9.900;2023-02-28T08:15:55;4.30;57.60
39325;DHT22;25037;49.488;9.900;2023-02-28T08:18:23;4.40;57.60
39325;DHT22;25037;49.488;9.900;2023-02-28T08:20:49;4.60;57.50
39325;DHT22;25037;49.488;9.900;2023-02-28T08:23:16;4.70;57.20
39325;DHT22;25037;49.488;9.900;2023-02-28T08:25:43;4.80;57.10
39325;DHT22;25037;49.488;9.900;2023-02-28T08:28:09;4.80;56.80
39325;DHT22;25037;49.488;9.900;2023-02-28T08:30:36;4.80;56.50
39325;DHT22;25037;49.488;9.900;2023-02-28T08:33:03;5.00;56.40
39325;DHT22;25037;49.488;9.900;2023-02-28T08:35:30;5.10;56.10
39325;DHT22;25037;49.488;9.900;2023-02-28T08:37:56;5.10;55.40
39325;DHT22;25037;49.488;9.900;2023-02-28T08:40:23;5.10;55.00
39325;DHT22;25037;49.488;9.900;2023-02-28T08:42:50;5.00;54.70
39325;DHT22;25037;49.488;9.900;2023-02-28T08:45:17;4.90;54.50
39325;DHT22;25037;49.488;9.900;2023-02-28T08:47:44;4.90;54.80
39325;DHT22;25037;49.488;9.900;2023-02-28T08:50:10;4.80;54.70
39325;DHT22;25037;49.488;9.900;2023-02-28T08:52:37;4.80;54.30
39325;DHT22;25037;49.488;9.900;2023-02-28T08:55:05;4.70;54.40
39325;DHT22;25037;49.488;9.900;2023-02-28T08:57:32;4.70;54.30
39325;DHT22;25037;49.488;9.900;2023-02-28T08:59:59;4.60;54.30
39325;DHT22;25037;49.488;9.900;2023-02-28T09:02:26;4.70;54.30
39325;DHT22;25037;49.488;9.900;2023-02-28T09:04:52;4.70;54.30
39325;DHT22;25037;49.488;9.900;2023-02-28T09:07:19;4.70;54.10
39325;DHT22;25037;49.488;9.900;2023-02-28T09:09:46;4.70;54.00
39325;DHT22;25037;49.488;9.900;2023-02-28T09:12:22;4.70;54.10
39325;DHT22;25037;49.488;9.900;2023-02-28T09:14:49;4.80;54.10
39325;DHT22;25037;49.488;9.900;2023-02-28T09:17:16;5.00;54.00
39325;DHT22;25037;49.488;9.900;2023-02-28T09:19:44;5.10;53.30
39325;DHT22;25037;49.488;9.900;2023-02-28T09:22:11;5.30;53.20
39325;DHT22;25037;49.488;9.900;2023-02-28T09:24:38;5.30;52.90
39325;DHT22;25037;49.488;9.900;2023-02-28T09:27:05;5.30;52.60
39325;DHT22;25037;49.488;9.900;2023-02-28T09:29:33;5.30;52.70
39325;DHT22;25037;49.488;9.900;2023-02-28T09:32:01;5.30;52.30
39325;DHT22;25037;49.488;9.900;2023-02-28T09:34:28;5.30;52.30
39325;DHT22;25037;49.488;9.900;2023-02-28T09:36:57;5.30;52.40
39325;DHT22;25037;49.488;9.900;2023-02-28T09:39:24;5.40;52.30
39325;DHT22;25037;49.488;9.900;2023-02-28T09:41:54;5.40;52.00
39325;DHT22;25037;49.488;9.900;2023-02-28T09:44:37;5.50;51.90
39325;DHT22;25037;49.488;9.900;2023-02-28T09:47:08;5.70;51.60
39325;DHT22;25037;49.488;9.900;2023-02-28T09:49:45;5.80;51.90
39325;DHT22;25037;49.488;9.900;2023-02-28T09:52:23;6.10;51.60
39325;DHT22;25037;49.488;9.900;2023-02-28T09:54:53;6.20;50.50
39325;DHT22;25037;49.488;9.900;2023-02-28T09:57:36;6.30;50.60
39325;DHT22;25037;49.488;9.900;2023-02-28T10:00:16;6.40;50.10
39325;DHT22;25037;49.488;9.900;2023-02-28T10:03:12;6.40;49.80
39325;DHT22;25037;49.488;9.900;2023-02-28T10:05:50;6.40;49.80
39325;DHT22;25037;49.488;9.900;2023-02-28T10:08:29;6.50;50.20
39325;DHT22;25037;49.488;9.900;2023-02-28T10:11:02;6.60;49.60
39325;DHT22;25037;49.488;9.900;2023-02-28T10:13:43;6.60;49.60
39325;DHT22;25037;49.488;9.900;2023-02-28T10:16:20;6.70;49.60
39325;DHT22;25037;49.488;9.900;2023-02-28T10:18:54;6.80;49.30
39325;DHT22;25037;49.488;9.900;2023-02-28T10:21:36;6.80;48.90
39325;DHT22;25037;49.488;9.900;2023-02-28T10:24:21;6.70;48.60
39325;DHT22;25037;49.488;9.900;2023-02-28T10:26:52;6.60;48.50
39325;DHT22;25037;49.488;9.900;2023-02-28T10:29:22;6.40;48.50
39325;DHT22;25037;49.488;9.900;2023-02-28T10:31:49;6.20;48.70
39325;DHT22;25037;49.488;9.900;2023-02-28T10:34:15;6.10;49.00
39325;DHT22;25037;49.488;9.900;2023-02-28T10:36:42;6.00;49.10
39325;DHT22;25037;49.488;9.900;2023-02-28T10:39:33;5.90;49.20
39325;DHT22;25037;49.488;9.900;2023-02-28T10:42:00;6.00;49.50
39325;DHT22;25037;49.488;9.900;2023-02-28T10:44:27;6.00;49.70
39325;DHT22;25037;49.488;9.900;2023-02-28T10:46:53;6.00;49.40
39325;DHT22;25037;49.488;9.900;2023-02-28T10:49:28;6.20;49.60
39325;DHT22;25037;49.488;9.900;2023-02-28T10:51:59;6.30;49.20
39325;DHT22;25037;49.488;9.900;2023-02-28T10:54:33;6.40;48.90
39325;DHT22;25037;49.488;9.900;2023-02-28T10:57:20;6.40;48.70
39325;DHT22;25037;49.488;9.900;2023-02-28T10:59:51;6.30;48.30
39325;DHT22;25037;49.488;9.900;2023-02-28T11:02:36;6.30;48.40
39325;DHT22;25037;49.488;9.900;2023-02-28T11:05:24;6.20;48.20
39325;DHT22;25037;49.488;9.900;2023-02-28T11:08:14;6.00;48.60
39325;DHT22;25037;49.488;9.900;2023-02-28T11:10:39;6.00;48.80
39325;DHT22;25037;49.488;9.900;2023-02-28T11:13:18;6.00;48.90
39325;DHT22;25037;49.488;9.900;2023-02-28T11:15:57;6.10;48.80
39325;DHT22;25037;49.488;9.900;2023-02-28T11:18:49;6.30;49.40
39325;DHT22;25037;49.488;9.900;2023-02-28T11:21:29;6.40;48.60
39325;DHT22;25037;49.488;9.900;2023-02-28T11:24:04;6.50;48.50
39325;DHT22;25037;49.488;9.900;2023-02-28T11:26:38;6.50;48.10
39325;DHT22;25037;49.488;9.900;2023-02-28T11:31:43;6.60;47.90
39325;DHT22;25037;49.488;9.900;2023-02-28T11:34:25;6.60;47.80
39325;DHT22;25037;49.488;9.900;2023-02-28T11:36:56;6.80;47.80
39325;DHT22;25037;49.488;9.900;2023-02-28T11:39:24;7.10;48.00
39325;DHT22;25037;49.488;9.900;2023-02-28T11:48:11;7.30;46.00
39325;DHT22;25037;49.488;9.900;2023-02-28T11:50:59;7.20;46.50
39325;DHT22;25037;49.488;9.900;2023-02-28T11:56:44;7.30;46.10
39325;DHT22;25037;49.488;9.900;2023-02-28T12:00:00;7.40;46.20
39325;DHT22;25037;49.488;9.900;2023-02-28T12:10:26;7.60;46.20
39325;DHT22;25037;49.488;9.900;2023-02-28T12:15:41;7.30;46.00
39325;DHT22;25037;49.488;9.900;2023-02-28T12:24:21;7.50;46.10
39325;DHT22;25037;49.488;9.900;2023-02-28T12:26:58;7.60;46.10
39325;DHT22;25037;49.488;9.900;2023-02-28T12:29:34;7.40;46.10
39325;DHT22;25037;49.488;9.900;2023-02-28T12:32:14;7.50;46.00
39325;DHT22;25037;49.488;9.900;2023-02-28T12:34:51;7.50;46.10
39325;DHT22;25037;49.488;9.900;2023-02-28T12:37:29;7.70;45.90
39325;DHT22;25037;49.488;9.900;2023-02-28T12:40:03;7.70;45.40
39325;DHT22;25037;49.488;9.900;2023-02-28T12:42:36;7.80;45.70
39325;DHT22;25037;49.488;9.900;2023-02-28T12:45:18;7.80;45.20
39325;DHT22;25037;49.488;9.900;2023-02-28T12:47:50;7.80;45.30
39325;DHT22;25037;49.488;9.900;2023-02-28T12:50:19;7.80;45.20
39325;DHT22;25037;49.488;9.900;2023-02-28T12:52:53;7.80;44.80
39325;DHT22;25037;49.488;9.900;2023-02-28T12:58:14;7.70;44.40
39325;DHT22;25037;49.488;9.900;2023-02-28T13:03:44;7.50;44.70
39325;DHT22;25037;49.488;9.900;2023-02-28T13:09:10;7.60;44.90
39325;DHT22;25037;49.488;9.900;2023-02-28T13:11:44;7.80;44.60
39325;DHT22;25037;49.488;9.900;2023-02-28T13:19:22;8.10;44.80
39325;DHT22;25037;49.488;9.900;2023-02-28T13:21:51;8.00;44.60
39325;DHT22;25037;49.488;9.900;2023-02-28T13:24:50;7.90;44.70
39325;DHT22;25037;49.488;9.900;2023-02-28T13:27:33;7.90;44.80
39325;DHT22;25037;49.488;9.900;2023-02-28T13:30:02;8.00;45.10
39325;DHT22;25037;49.488;9.900;2023-02-28T13:33:59;8.00;44.90
39325;DHT22;25037;49.488;9.900;2023-02-28T13:38:57;8.20;44.90
39325;DHT22;25037;49.488;9.900;2023-02-28T13:49:27;8.00;44.40
39325;DHT22;25037;49.488;9.900;2023-02-28T13:54:56;8.00;44.50
39325;DHT22;25037;49.488;9.900;2023-02-28T13:57:33;8.00;44.50
39325;DHT22;25037;49.488;9.900;2023-02-28T14:03:40;8.00;44.80
39325;DHT22;25037;49.488;9.900;2023-02-28T14:06:25;8.00;44.40
39325;DHT22;25037;49.488;9.900;2023-02-28T14:11:44;8.10;44.50
39325;DHT22;25037;49.488;9.900;2023-02-28T14:17:03;8.20;44.40
39325;DHT22;25037;49.488;9.900;2023-02-28T14:19:32;8.10;43.90
39325;DHT22;25037;49.488;9.900;2023-02-28T14:27:25;8.10;44.70
39325;DHT22;25037;49.488;9.900;2023-02-28T14:32:47;7.80;44.30
39325;DHT22;25037;49.488;9.900;2023-02-28T14:38:06;7.80;45.10
39325;DHT22;25037;49.488;9.900;2023-02-28T14:40:35;7.70;44.60
39325;DHT22;25037;49.488;9.900;2023-02-28T14:43:05;7.60;44.90
39325;DHT22;25037;49.488;9.900;2023-02-28T14:45:34;7.50;44.90
39325;DHT22;25037;49.488;9.900;2023-02-28T14:48:01;7.50;45.00
39325;DHT22;25037;49.488;9.900;2023-02-28T14:50:36;7.50;45.20
39325;DHT22;25037;49.488;9.900;2023-02-28T14:53:04;7.50;45.30
39325;DHT22;25037;49.488;9.900;2023-02-28T14:55:34;7.50;45.20
39325;DHT22;25037;49.488;9.900;2023-02-28T14:58:04;7.50;45.40
39325;DHT22;25037;49.488;9.900;2023-02-28T15:00:46;7.50;45.50
39325;DHT22;25037;49.488;9.900;2023-02-28T15:03:38;7.40;45.20
39325;DHT22;25037;49.488;9.900;2023-02-28T15:06:16;7.40;45.40
39325;DHT22;25037;49.488;9.900;2023-02-28T15:08:45;7.30;45.40
39325;DHT22;25037;49.488;9.900;2023-02-28T15:11:17;7.20;45.50
39325;DHT22;25037;49.488;9.900;2023-02-28T15:13:54;7.10;45.70
39325;DHT22;25037;49.488;9.900;2023-02-28T15:16:37;7.10;45.70
39325;DHT22;25037;49.488;9.900;2023-02-28T15:19:13;7.00;45.80
39325;DHT22;25037;49.488;9.900;2023-02-28T15:21:44;7.00;46.00
39325;DHT22;25037;49.488;9.900;2023-02-28T15:27:10;7.00;46.10
39325;DHT22;25037;49.488;9.900;2023-02-28T15:29:47;6.90;46.20
39325;DHT22;25037;49.488;9.900;2023-02-28T15:34:50;6.80;46.30
39325;DHT22;25037;49.488;9.900;2023-02-28T15:42:40;6.80;46.40
39325;DHT22;25037;49.488;9.900;2023-02-28T15:45:27;6.80;46.40
39325;DHT22;25037;49.488;9.900;2023-02-28T15:47:57;6.80;46.60
39325;DHT22;25037;49.488;9.900;2023-02-28T15:50:34;6.80;46.80
39325;DHT22;25037;49.488;9.900;2023-02-28T15:53:01;6.80;46.80
39325;DHT22;25037;49.488;9.900;2023-02-28T15:55:30;6.80;46.80
39325;DHT22;25037;49.488;9.900;2023-02-28T15:58:00;6.80;46.80
39325;DHT22;25037;49.488;9.900;2023-02-28T16:00:29;6.80;46.90
39325;DHT22;25037;49.488;9.900;2023-02-28T16:02:56;6.80;47.00
39325;DHT22;25037;49.488;9.900;2023-02-28T16:07:56;6.80;47.30
39325;DHT22;25037;49.488;9.900;2023-02-28T16:10:24;6.80;47.30
39325;DHT22;25037;49.488;9.900;2023-02-28T16:12:54;6.70;47.30
39325;DHT22;25037;49.488;9.900;2023-02-28T16:15:27;6.70;47.20
39325;DHT22;25037;49.488;9.900;2023-02-28T16:17:55;6.60;47.30
39325;DHT22;25037;49.488;9.900;2023-02-28T16:20:30;6.60;47.40
39325;DHT22;25037;49.488;9.900;2023-02-28T16:22:57;6.50;47.40
39325;DHT22;25037;49.488;9.900;2023-02-28T16:25:34;6.50;47.50
39325;DHT22;25037;49.488;9.900;2023-02-28T16:28:03;6.40;47.50
39325;DHT22;25037;49.488;9.900;2023-02-28T16:30:30;6.30;47.50
39325;DHT22;25037;49.488;9.900;2023-02-28T16:32:59;6.30;47.60
39325;DHT22;25037;49.488;9.900;2023-02-28T16:35:26;6.30;47.70
39325;DHT22;25037;49.488;9.900;2023-02-28T16:37:53;6.20;47.70
39325;DHT22;25037;49.488;9.900;2023-02-28T16:40:25;6.10;47.70
39325;DHT22;25037;49.488;9.900;2023-02-28T16:42:54;6.10;47.90
39325;DHT22;25037;49.488;9.900;2023-02-28T16:45:25;6.00;48.00
39325;DHT22;25037;49.488;9.900;2023-02-28T16:47:53;5.90;48.10
39325;DHT22;25037;49.488;9.900;2023-02-28T16:50:23;5.90;48.20
39325;DHT22;25037;49.488;9.900;2023-02-28T16:52:50;5.80;48.40
39325;DHT22;25037;49.488;9.900;2023-02-28T16:55:19;5.80;48.50
39325;DHT22;25037;49.488;9.900;2023-02-28T16:57:51;5.70;48.60
39325;DHT22;25037;49.488;9.900;2023-02-28T17:00:18;5.70;48.80
39325;DHT22;25037;49.488;9.900;2023-02-28T17:02:45;5.60;48.90
39325;DHT22;25037;49.488;9.900;2023-02-28T17:05:12;5.50;49.00
39325;DHT22;25037;49.488;9.900;2023-02-28T17:07:39;5.50;49.20
39325;DHT22;25037;49.488;9.900;2023-02-28T17:10:15;5.40;49.30
39325;DHT22;25037;49.488;9.900;2023-02-28T17:12:42;5.30;49.50
39325;DHT22;25037;49.488;9.900;2023-02-28T17:15:14;5.20;49.70
39325;DHT22;25037;49.488;9.900;2023-02-28T17:17:42;5.10;49.90
39325;DHT22;25037;49.488;9.900;2023-02-28T17:20:15;4.90;50.10
39325;DHT22;25037;49.488;9.900;2023-02-28T17:22:42;4.90;50.40
39325;DHT22;25037;49.488;9.900;2023-02-28T17:25:10;4.70;50.60
39325;DHT22;25037;49.488;9.900;2023-02-28T17:27:37;4.60;50.80
39325;DHT22;25037;49.488;9.900;2023-02-28T17:30:25;4.50;51.00
39325;DHT22;25037;49.488;9.900;2023-02-28T17:32:56;4.40;51.30
39325;DHT22;25037;49.488;9.900;2023-02-28T17:35:23;4.30;51.30
39325;DHT22;25037;49.488;9.900;2023-02-28T17:37:50;4.20;51.50
39325;DHT22;25037;49.488;9.900;2023-02-28T17:40:22;4.10;51.60
39325;DHT22;25037;49.488;9.900;2023-02-28T17:42:49;4.00;51.90
39325;DHT22;25037;49.488;9.900;2023-02-28T17:45:18;4.00;51.90
39325;DHT22;25037;49.488;9.900;2023-02-28T17:47:48;3.90;52.00
39325;DHT22;25037;49.488;9.900;2023-02-28T17:50:18;3.80;52.20
39325;DHT22;25037;49.488;9.900;2023-02-28T17:52:45;3.80;52.30
39325;DHT22;25037;49.488;9.900;2023-02-28T17:55:12;3.70;52.40
39325;DHT22;25037;49.488;9.900;2023-02-28T17:57:39;3.70;52.60
39325;DHT22;25037;49.488;9.900;2023-02-28T18:00:11;3.60;52.80
39325;DHT22;25037;49.488;9.900;2023-02-28T18:02:39;3.50;53.00